createdAt,value
2023-03-13T00:01:28.839Z,12.10
2023-03-13T00:20:41.936Z,12.30
2023-03-13T00:26:17.713Z,12.30
2023-03-13T00:29:11.201Z,12.20
2023-03-13T00:40:48.864Z,12.20
2023-03-13T00:58:22.691Z,12.30
2023-03-13T01:07:07.835Z,12.40
2023-03-13T01:10:01.930Z,12.30
2023-03-13T01:37:21.203Z,12.30
2023-03-13T01:42:57.443Z,12.30
2023-03-13T01:46:17.815Z,12.30
2023-03-13T01:49:35.099Z,12.30
2023-03-13T02:42:28.883Z,12.40
2023-03-13T02:45:00.477Z,12.40
2023-03-13T03:32:54.985Z,12.00
2023-03-13T03:42:36.938Z,12.00
2023-03-13T03:45:05.487Z,12.00
2023-03-13T03:53:38.689Z,12.10
2023-03-13T03:58:58.630Z,12.00
2023-03-13T04:17:40.541Z,12.10
2023-03-13T05:15:30.214Z,13.40
2023-03-13T06:06:47.162Z,13.60
2023-03-13T06:09:19.030Z,13.70
2023-03-13T06:35:04.071Z,13.70
2023-03-13T07:03:43.509Z,13.70
2023-03-13T07:41:43.569Z,14.00
2023-03-13T07:47:22.331Z,14.10
2023-03-13T07:59:06.843Z,14.30
2023-03-13T08:07:59.996Z,14.40
2023-03-13T08:29:14.933Z,14.80
2023-03-13T08:32:13.911Z,14.90
2023-03-13T08:34:44.042Z,15.00
2023-03-13T08:37:17.360Z,15.10
2023-03-13T08:39:47.885Z,15.10
2023-03-13T08:42:19.553Z,15.10
2023-03-13T08:44:53.555Z,15.10
2023-03-13T08:47:20.557Z,15.00
2023-03-13T08:49:49.334Z,15.00
2023-03-13T08:52:20.423Z,14.90
2023-03-13T08:54:51.329Z,14.90
2023-03-13T08:57:46.943Z,14.90
2023-03-13T09:00:21.813Z,14.90
2023-03-13T09:02:49.086Z,15.00
2023-03-13T09:05:21.608Z,15.00
2023-03-13T09:07:54.368Z,15.00
2023-03-13T09:10:26.296Z,15.00
2023-03-13T09:13:46.600Z,15.00
2023-03-13T09:16:25.956Z,15.00
2023-03-13T09:18:55.874Z,15.00
2023-03-13T09:21:26.604Z,15.00
2023-03-13T09:35:27.739Z,15.50
2023-03-13T09:52:04.859Z,15.80
2023-03-13T09:55:30.138Z,15.80
2023-03-13T09:58:17.800Z,15.80
2023-03-13T10:00:56.274Z,15.90
2023-03-13T10:03:36.200Z,16.00
2023-03-13T10:06:25.432Z,16.00
2023-03-13T10:08:52.492Z,16.10
2023-03-13T10:11:52.286Z,16.10
2023-03-13T10:17:43.387Z,16.10
2023-03-13T10:26:35.936Z,16.10
2023-03-13T10:29:48.805Z,16.10
2023-03-13T10:32:29.570Z,16.10
2023-03-13T10:38:10.806Z,16.30
2023-03-13T10:41:19.251Z,16.30
2023-03-13T10:48:41.536Z,16.50
2023-03-13T10:51:42.147Z,16.50
2023-03-13T10:55:45.552Z,16.60
2023-03-13T10:58:35.129Z,16.60
2023-03-13T11:02:00.032Z,16.70
2023-03-13T11:04:36.835Z,16.70
2023-03-13T11:07:42.089Z,16.80
2023-03-13T11:10:13.402Z,17.00
2023-03-13T11:13:04.035Z,17.10
2023-03-13T11:16:30.941Z,17.20
2023-03-13T11:19:14.957Z,17.30
2023-03-13T11:22:27.920Z,17.30
2023-03-13T11:28:58.700Z,17.50
2023-03-13T11:31:40.742Z,17.60
2023-03-13T11:34:46.225Z,17.70
2023-03-13T11:43:42.560Z,17.80
2023-03-13T11:49:52.269Z,18.00
2023-03-13T11:56:05.213Z,18.30
2023-03-13T11:59:10.322Z,18.40
2023-03-13T12:02:33.347Z,18.40
2023-03-13T12:05:15.843Z,18.40
2023-03-13T12:08:05.198Z,18.40
2023-03-13T12:10:56.012Z,18.40
2023-03-13T12:14:20.913Z,18.40
2023-03-13T12:17:07.559Z,18.40
2023-03-13T12:20:17.442Z,18.50
2023-03-13T12:23:28.550Z,18.50
2023-03-13T12:26:19.952Z,18.70
2023-03-13T12:29:44.821Z,18.80
2023-03-13T12:32:43.763Z,18.90
2023-03-13T12:35:28.925Z,19.00
2023-03-13T12:39:01.406Z,19.00
2023-03-13T12:42:46.997Z,19.00
2023-03-13T12:45:20.996Z,19.10
2023-03-13T12:48:32.219Z,19.20
2023-03-13T12:51:40.050Z,19.30
2023-03-13T12:54:50.386Z,19.50
2023-03-13T13:01:07.285Z,19.80
2023-03-13T13:04:04.694Z,20.10
2023-03-13T13:07:17.849Z,20.30
2023-03-13T13:10:21.427Z,20.30
2023-03-13T13:13:44.510Z,20.40
2023-03-13T13:16:24.059Z,20.20
2023-03-13T13:18:53.288Z,20.20
2023-03-13T13:25:02.038Z,20.20
2023-03-13T13:27:52.766Z,20.30
2023-03-13T13:30:23.099Z,20.40
2023-03-13T13:33:31.723Z,20.70
2023-03-13T13:37:21.829Z,20.90
2023-03-13T13:39:56.500Z,21.10
2023-03-13T13:42:44.972Z,21.30
2023-03-13T13:45:24.757Z,21.50
2023-03-13T13:48:31.981Z,22.00
2023-03-13T13:51:20.140Z,22.40
2023-03-13T13:54:16.209Z,22.50
2023-03-13T13:57:43.941Z,22.60
2023-03-13T14:00:28.345Z,22.50
2023-03-13T14:03:03.934Z,22.30
2023-03-13T14:05:34.307Z,22.00
2023-03-13T14:08:51.604Z,21.90
2023-03-13T14:15:16.989Z,21.70
2023-03-13T14:18:31.189Z,21.90
2023-03-13T14:21:23.546Z,22.20
2023-03-13T14:40:13.520Z,22.30
2023-03-13T14:57:36.257Z,22.60
2023-03-13T15:00:56.412Z,22.60
2023-03-13T15:03:34.168Z,22.70
2023-03-13T15:06:16.853Z,22.80
2023-03-13T15:09:57.410Z,22.70
2023-03-13T15:12:43.734Z,22.70
2023-03-13T15:24:28.257Z,22.70
2023-03-13T15:29:46.447Z,22.60
2023-03-13T16:29:42.347Z,21.10
2023-03-13T16:35:28.420Z,20.90
2023-03-13T17:57:13.798Z,16.30
2023-03-13T18:11:28.886Z,15.60
2023-03-13T18:29:50.916Z,15.00
2023-03-13T18:32:25.943Z,14.90
2023-03-13T19:22:31.511Z,14.20
2023-03-13T20:05:03.153Z,12.80
2023-03-13T20:10:32.885Z,12.50
2023-03-13T20:18:50.203Z,12.10
2023-03-13T20:33:30.763Z,11.60
2023-03-13T20:41:42.812Z,11.40
2023-03-13T20:54:56.996Z,11.10
2023-03-13T20:57:25.386Z,11.10
2023-03-13T20:59:55.327Z,11.10
2023-03-13T21:02:22.370Z,11.10
2023-03-13T21:04:50.331Z,11.10
2023-03-13T21:07:17.222Z,11.10
2023-03-13T21:09:43.940Z,11.10
2023-03-13T21:12:13.295Z,11.00
2023-03-13T21:14:45.665Z,11.00
2023-03-13T21:17:18.751Z,11.00
2023-03-13T21:19:46.938Z,11.00
2023-03-13T21:22:14.028Z,11.00
2023-03-13T21:24:53.675Z,11.10
2023-03-13T21:27:23.501Z,11.10
2023-03-13T21:29:50.183Z,11.10
2023-03-13T21:32:20.209Z,11.10
2023-03-13T21:35:12.236Z,11.10
2023-03-13T21:37:44.809Z,11.10
2023-03-13T21:40:12.941Z,11.10
2023-03-13T21:42:39.707Z,11.10
2023-03-13T21:45:07.388Z,11.10
2023-03-13T21:47:36.268Z,11.10
2023-03-13T21:50:05.985Z,11.10
2023-03-13T21:52:41.040Z,11.10
2023-03-13T21:55:12.429Z,11.10
2023-03-13T21:57:40.241Z,11.10
2023-03-13T22:00:13.165Z,11.10
2023-03-13T22:02:42.723Z,11.10
2023-03-13T22:05:13.171Z,11.20
2023-03-13T22:07:40.687Z,11.20
2023-03-13T22:10:07.996Z,11.20
2023-03-13T22:12:43.016Z,11.20
2023-03-13T22:15:14.702Z,11.20
2023-03-13T22:17:44.638Z,11.30
2023-03-13T22:20:15.377Z,11.30
2023-03-13T22:22:47.733Z,11.40
2023-03-13T22:25:14.864Z,11.40
2023-03-13T22:27:47.200Z,11.40
2023-03-13T22:30:19.136Z,11.50
2023-03-13T22:33:07.901Z,11.50
2023-03-13T22:36:02.175Z,11.50
2023-03-13T22:38:40.678Z,11.50
2023-03-13T22:41:11.559Z,11.60
2023-03-13T22:43:39.355Z,11.60
2023-03-13T22:46:10.609Z,11.60
2023-03-13T22:48:41.988Z,11.60
2023-03-13T22:51:11.349Z,11.60
2023-03-13T22:53:40.457Z,11.60
2023-03-13T22:56:11.780Z,11.60
2023-03-13T22:58:42.235Z,11.50
2023-03-13T23:01:14.743Z,11.60
2023-03-13T23:03:42.343Z,11.60
2023-03-13T23:06:32.188Z,11.50
2023-03-13T23:08:58.842Z,11.60
2023-03-13T23:11:28.833Z,11.60
2023-03-13T23:14:00.510Z,11.60
2023-03-13T23:16:29.926Z,11.60
2023-03-13T23:19:04.881Z,11.60
2023-03-13T23:21:34.827Z,11.60
2023-03-13T23:24:01.396Z,11.50
2023-03-13T23:26:31.852Z,11.60
2023-03-13T23:31:53.023Z,11.60
2023-03-13T23:34:21.608Z,11.50
2023-03-13T23:36:48.862Z,11.50
2023-03-13T23:39:15.695Z,11.50
2023-03-13T23:41:42.603Z,11.50
2023-03-13T23:44:09.282Z,11.40
2023-03-13T23:46:38.032Z,11.40
2023-03-13T23:49:08.067Z,11.40
2023-03-13T23:51:36.542Z,11.40
2023-03-13T23:54:03.391Z,11.40
2023-03-13T23:56:33.458Z,11.40
2023-03-13T23:59:02.310Z,11.40
